Time;durP1;ratioP1;P1;durP2;ratioP2;P2;SDS_P1;SDS_P2;PMS_P1;PMS_P2;Temp;Humidity;BMP_temperature;BMP_pressure;BME280_temperature;BME280_humidity;BME280_pressure;Samples;Min_cycle;Max_cycle;Signal;HPM_P1;HPM_P2
2023/03/02 00:01:52;;;;;;;298.60;44.47;;;;;;;-0.15;100.00;102313.56;4984406;28;20490;-71
2023/03/02 00:04:23;;;;;;;255.43;36.90;;;;;;;-0.17;100.00;102319.78;4969153;28;20046;-73
2023/03/02 00:06:50;;;;;;;144.95;34.70;;;;;;;-0.18;100.00;102312.84;4973739;28;20046;-74
2023/03/02 00:09:16;;;;;;;108.97;29.48;;;;;;;-0.06;100.00;102312.38;4988412;28;20030;-74
2023/03/02 00:11:42;;;;;;;175.52;30.33;;;;;;;-0.11;100.00;102323.06;4968717;28;20705;-74
2023/03/02 00:14:07;;;;;;;83.65;26.65;;;;;;;0.01;100.00;102323.53;4986730;28;20042;-72
2023/03/02 00:16:33;;;;;;;124.40;31.10;;;;;;;0.03;100.00;102321.72;4986110;28;20495;-71
2023/03/02 00:18:58;;;;;;;135.27;27.10;;;;;;;0.02;100.00;102315.59;4985556;28;20187;-73
2023/03/02 00:21:23;;;;;;;254.38;37.85;;;;;;;-0.04;100.00;102311.41;4986092;28;20034;-74
2023/03/02 00:23:50;;;;;;;129.70;30.08;;;;;;;0.02;100.00;102306.84;4986491;28;20404;-72
2023/03/02 00:26:16;;;;;;;119.43;31.63;;;;;;;0.05;100.00;102307.59;4986350;28;20045;-74
2023/03/02 00:28:42;;;;;;;76.20;26.42;;;;;;;0.05;100.00;102299.72;4968921;28;20022;-74
2023/03/02 00:31:07;;;;;;;88.75;24.38;;;;;;;0.08;100.00;102309.25;4968528;28;20046;-71
2023/03/02 00:33:33;;;;;;;163.90;30.75;;;;;;;0.02;100.00;102297.19;4986213;28;20045;-71
2023/03/02 00:35:59;;;;;;;162.70;28.23;;;;;;;0.04;100.00;102287.50;4968491;28;20535;-74
2023/03/02 00:38:26;;;;;;;;;;;;;;;0.03;100.00;102290.19;4972843;28;20084;-74
2023/03/02 00:40:52;;;;;;;171.02;32.88;;;;;;;-0.16;100.00;102279.53;4968156;28;19925;-72
2023/03/02 00:43:17;;;;;;;94.85;23.27;;;;;;;-0.05;100.00;102288.72;4968164;28;20030;-71
2023/03/02 00:45:43;;;;;;;277.70;35.72;;;;;;;-0.05;100.00;102280.84;4968254;28;20499;-72
2023/03/02 00:48:08;;;;;;;129.05;28.67;;;;;;;0.01;100.00;102271.00;4984682;28;20041;-74
2023/03/02 00:50:39;;;;;;;289.33;44.83;;;;;;;0.05;100.00;102293.59;4968221;28;20102;-74
2023/03/02 00:53:07;;;;;;;148.38;32.60;;;;;;;0.05;100.00;102281.34;4968382;28;20121;-74
2023/03/02 00:55:32;;;;;;;141.18;29.80;;;;;;;0.11;100.00;102288.13;4967823;28;20034;-71
2023/03/02 00:57:58;;;;;;;159.38;30.30;;;;;;;0.10;100.00;102283.81;4984641;28;20037;-74
2023/03/02 01:00:28;;;;;;;181.90;33.45;;;;;;;0.09;100.00;102279.44;4971460;28;20034;-72
2023/03/02 01:02:56;;;;;;;84.47;25.27;;;;;;;0.07;100.00;102271.66;4968965;28;20080;-74
2023/03/02 01:05:22;;;;;;;139.52;31.90;;;;;;;0.03;100.00;102272.66;4967202;28;20034;-73
2023/03/02 01:07:47;;;;;;;229.20;36.40;;;;;;;-0.01;100.00;102265.81;4984807;28;20431;-72
2023/03/02 01:10:13;;;;;;;342.77;42.75;;;;;;;0.02;100.00;102277.97;5015972;23;20057;-72
2023/03/02 01:12:40;;;;;;;205.07;33.95;;;;;;;0.01;100.00;102277.13;5003966;28;20037;-71
2023/03/02 01:15:08;;;;;;;242.18;37.63;;;;;;;-0.06;100.00;102271.22;5005388;28;20037;-73
2023/03/02 01:17:33;;;;;;;107.88;28.55;;;;;;;-0.11;100.00;102273.19;5005698;28;20241;-73
2023/03/02 01:19:59;;;;;;;253.27;33.97;;;;;;;0.00;100.00;102275.41;4984584;28;20542;-73
2023/03/02 01:22:25;;;;;;;121.55;27.10;;;;;;;0.04;100.00;102279.63;4985587;28;20037;-74
2023/03/02 01:24:50;;;;;;;488.55;51.58;;;;;;;-0.03;100.00;102270.25;4975009;28;20038;-70
2023/03/02 01:27:16;;;;;;;209.85;35.72;;;;;;;-0.02;100.00;102272.84;4974376;28;20045;-73
2023/03/02 01:29:41;;;;;;;228.57;33.30;;;;;;;0.04;100.00;102277.00;4985203;28;20034;-73
2023/03/02 01:32:07;;;;;;;190.85;35.85;;;;;;;0.03;100.00;102269.19;4972649;28;20354;-72
2023/03/02 01:34:33;;;;;;;231.23;35.03;;;;;;;0.13;100.00;102260.03;4987583;28;20403;-71
2023/03/02 01:36:58;;;;;;;302.83;41.60;;;;;;;0.11;100.00;102269.75;4990408;28;20281;-72
2023/03/02 01:39:23;;;;;;;114.88;30.98;;;;;;;0.11;100.00;102261.88;4990803;28;20081;-73
2023/03/02 01:41:51;;;;;;;360.42;39.55;;;;;;;0.04;100.00;102263.88;4970686;28;20037;-71
2023/03/02 01:44:38;;;;;;;124.85;27.25;;;;;;;-0.02;100.00;102257.09;4990753;28;20034;-73
2023/03/02 01:47:18;;;;;;;235.55;33.25;;;;;;;0.10;100.00;102245.25;4982576;28;20027;-73
2023/03/02 01:50:00;;;;;;;315.92;37.53;;;;;;;0.11;100.00;102241.69;4993374;28;20042;-72
2023/03/02 01:52:34;;;;;;;198.38;33.20;;;;;;;0.11;100.00;102241.69;4973641;28;20116;-72
2023/03/02 01:55:04;;;;;;;193.95;29.50;;;;;;;0.16;100.00;102238.91;4965184;28;20102;-72
2023/03/02 01:57:42;;;;;;;213.75;32.20;;;;;;;0.19;100.00;102237.03;4991714;28;20045;-73
2023/03/02 02:00:10;;;;;;;244.07;30.85;;;;;;;0.23;100.00;102229.88;4974634;28;20494;-70
2023/03/02 02:02:40;;;;;;;377.35;44.75;;;;;;;0.19;100.00;102234.41;4976096;28;20022;-73
2023/03/02 02:05:11;;;;;;;208.85;30.58;;;;;;;0.18;100.00;102222.16;4977622;28;20034;-72
2023/03/02 02:07:37;;;;;;;186.23;31.00;;;;;;;0.13;100.00;102218.03;4986158;28;20034;-72
2023/03/02 02:10:04;;;;;;;291.33;31.77;;;;;;;0.14;100.00;102222.34;4974747;28;20239;-72
2023/03/02 02:12:29;;;;;;;107.60;22.55;;;;;;;0.13;100.00;102215.41;4974071;28;20467;-73
2023/03/02 02:14:59;;;;;;;242.73;31.23;;;;;;;0.16;100.00;102215.25;4964994;28;20439;-73
2023/03/02 02:17:27;;;;;;;111.57;23.67;;;;;;;0.13;100.00;102220.66;4974050;28;20042;-73
2023/03/02 02:20:04;;;;;;;151.93;26.08;;;;;;;0.14;100.00;102223.22;4977722;28;20034;-70
2023/03/02 02:22:35;;;;;;;284.42;33.55;;;;;;;0.22;100.00;102217.66;4992875;28;20038;-73
2023/03/02 02:25:07;;;;;;;90.63;19.73;;;;;;;0.21;100.00;102221.19;4987858;28;20038;-73
2023/03/02 02:27:33;;;;;;;159.10;22.55;;;;;;;0.22;100.00;102217.66;4990504;28;20046;-72
2023/03/02 02:30:02;;;;;;;134.10;26.58;;;;;;;0.11;100.00;102219.84;4973844;28;20486;-73
2023/03/02 02:32:31;;;;;;;144.38;24.42;;;;;;;0.16;100.00;102218.78;4973526;28;20046;-73
2023/03/02 02:35:23;;;;;;;219.15;27.10;;;;;;;0.13;100.00;102218.03;4964969;28;20030;-72
2023/03/02 02:38:08;;;;;;;169.00;27.73;;;;;;;0.09;100.00;102222.53;4983002;28;20057;-72
2023/03/02 02:40:49;;;;;;;246.07;29.58;;;;;;;-0.02;100.00;102206.34;4990050;28;20104;-72
2023/03/02 02:43:19;;;;;;;178.35;25.88;;;;;;;0.02;100.00;102209.69;4955165;28;20636;-73
2023/03/02 02:45:47;;;;;;;114.95;21.40;;;;;;;0.11;100.00;102210.19;4989828;28;20121;-72
2023/03/02 02:48:15;;;;;;;325.90;33.13;;;;;;;-0.03;100.00;102199.38;4977195;28;20030;-70
2023/03/02 02:50:41;;;;;;;226.18;28.58;;;;;;;-0.12;100.00;102197.09;4982188;28;20216;-72
2023/03/02 02:53:15;;;;;;;178.18;28.92;;;;;;;0.01;100.00;102194.88;4987872;28;20048;-70
2023/03/02 02:55:42;;;;;;;116.20;23.90;;;;;;;0.05;100.00;102193.81;4989335;28;20048;-73
2023/03/02 02:58:27;;;;;;;245.68;29.38;;;;;;;0.11;100.00;102197.06;4974209;28;20087;-71
2023/03/02 03:00:54;;;;;;;206.88;31.48;;;;;;;0.11;100.00;102193.59;4977407;28;20034;-73
2023/03/02 03:03:30;;;;;;;310.85;36.30;;;;;;;0.09;100.00;102195.41;4954058;28;20042;-72
2023/03/02 03:06:01;;;;;;;133.52;24.30;;;;;;;0.10;100.00;102191.88;4973730;28;20097;-73
2023/03/02 03:08:45;;;;;;;311.52;34.17;;;;;;;0.06;100.00;102185.88;4987626;28;20026;-73
2023/03/02 03:11:25;;;;;;;87.85;20.08;;;;;;;0.08;100.00;102183.22;4988886;28;20034;-73
2023/03/02 03:14:00;;;;;;;343.38;34.28;;;;;;;0.10;100.00;102184.00;4972983;28;20065;-72
2023/03/02 03:16:29;;;;;;;165.82;23.48;;;;;;;0.03;100.00;102186.00;4975795;28;20049;-73
2023/03/02 03:18:58;;;;;;;141.15;22.55;;;;;;;0.09;100.00;102195.41;4957551;28;20019;-73
2023/03/02 03:21:24;;;;;;;212.63;26.80;;;;;;;0.07;100.00;102200.75;4974957;28;20045;-73
2023/03/02 03:23:49;;;;;;;305.20;32.08;;;;;;;0.09;100.00;102193.63;4987093;28;20395;-73
2023/03/02 03:26:15;;;;;;;101.05;19.65;;;;;;;0.08;100.00;102191.94;4976562;28;20091;-74
2023/03/02 03:28:41;;;;;;;367.27;35.78;;;;;;;-0.02;100.00;102188.81;4962148;28;20057;-73
2023/03/02 03:31:06;;;;;;;248.85;30.00;;;;;;;-0.09;100.00;102186.50;4973036;28;20497;-74
2023/03/02 03:33:32;;;;;;;185.25;29.13;;;;;;;-0.09;100.00;102181.25;4988731;28;20038;-70
2023/03/02 03:35:59;;;;;;;228.20;28.00;;;;;;;-0.06;100.00;102181.13;4973101;28;20551;-71
2023/03/02 03:38:25;;;;;;;257.85;25.63;;;;;;;-0.17;100.00;102173.63;4953602;28;20034;-73
2023/03/02 03:40:51;;;;;;;84.82;19.75;;;;;;;-0.10;100.00;102175.09;4989425;28;20561;-71
2023/03/02 03:43:16;;;;;;;126.78;21.67;;;;;;;-0.03;100.00;102175.72;4972860;28;20149;-73
2023/03/02 03:45:50;;;;;;;140.85;20.40;;;;;;;-0.05;100.00;102174.94;4969123;28;20054;-72
2023/03/02 03:48:18;;;;;;;92.50;19.83;;;;;;;-0.03;100.00;102170.47;4972393;28;20513;-72
2023/03/02 03:50:44;;;;;;;123.35;21.70;;;;;;;-0.10;100.00;102167.22;4972198;28;20029;-72
2023/03/02 03:53:10;;;;;;;118.07;21.02;;;;;;;-0.07;100.00;102164.50;4975851;28;20035;-73
2023/03/02 03:55:35;;;;;;;71.55;18.75;;;;;;;0.01;100.00;102177.34;4972088;28;20069;-73
2023/03/02 03:58:01;;;;;;;65.32;15.77;;;;;;;-0.02;100.00;102167.81;4975227;28;20037;-73
2023/03/02 04:00:26;;;;;;;65.68;15.43;;;;;;;0.06;100.00;102171.91;4988639;28;20129;-71
2023/03/02 04:02:57;;;;;;;60.67;14.52;;;;;;;-0.04;100.00;102174.03;4978401;28;20045;-72
2023/03/02 04:05:24;;;;;;;96.03;15.90;;;;;;;-0.07;100.00;102175.00;4953121;28;20125;-72
2023/03/02 04:07:52;;;;;;;129.55;21.88;;;;;;;-0.15;100.00;102166.56;4975857;28;20070;-71
2023/03/02 04:10:18;;;;;;;79.03;17.88;;;;;;;-0.03;100.00;102173.09;4968205;28;20045;-73
2023/03/02 04:12:44;;;;;;;189.38;22.20;;;;;;;-0.11;100.00;102168.16;4964503;28;20065;-73
2023/03/02 04:15:14;;;;;;;51.63;15.20;;;;;;;-0.11;100.00;102167.31;4972184;28;20294;-72
2023/03/02 04:17:42;;;;;;;71.28;15.38;;;;;;;-0.07;100.00;102167.13;4959405;28;20042;-73
2023/03/02 04:20:08;;;;;;;129.00;17.83;;;;;;;-0.10;100.00;102164.59;4971783;28;20439;-73
2023/03/02 04:22:35;;;;;;;106.00;18.85;;;;;;;-0.20;100.00;102163.25;4984755;28;20030;-71
2023/03/02 04:25:01;;;;;;;78.45;14.65;;;;;;;-0.29;100.00;102161.81;4975016;28;20394;-72
2023/03/02 04:27:26;;;;;;;88.13;15.52;;;;;;;-0.28;100.00;102160.06;4988977;28;20038;-73
2023/03/02 04:29:52;;;;;;;95.28;15.27;;;;;;;-0.16;100.00;102161.38;4960028;28;20038;-71
2023/03/02 04:32:18;;;;;;;;;;;;;;;-0.16;100.00;102158.75;4975322;28;20053;-73
2023/03/02 04:34:49;;;;;;;63.80;15.02;;;;;;;-0.23;100.00;102156.34;4973654;28;20410;-72
2023/03/02 04:37:15;;;;;;;82.93;16.30;;;;;;;-0.22;100.00;102158.06;4974214;28;20042;-73
2023/03/02 04:39:41;;;;;;;126.63;18.50;;;;;;;-0.21;100.00;102161.56;4960932;28;20030;-73
2023/03/02 04:42:06;;;;;;;72.18;15.00;;;;;;;-0.16;100.00;102164.00;4974831;28;20073;-73
2023/03/02 04:44:32;;;;;;;142.85;17.67;;;;;;;-0.14;100.00;102149.91;4986185;28;20089;-71
2023/03/02 04:46:57;;;;;;;52.85;14.30;;;;;;;-0.25;100.00;102154.72;4948634;28;20047;-71
2023/03/02 04:49:22;;;;;;;157.25;19.83;;;;;;;-0.36;100.00;102156.88;4988477;28;20117;-72
2023/03/02 04:51:49;;;;;;;97.20;17.10;;;;;;;-0.28;100.00;102157.44;4985113;28;20109;-73
2023/03/02 04:54:21;;;;;;;165.55;19.05;;;;;;;-0.28;100.00;102152.19;4990398;28;20034;-73
2023/03/02 04:56:50;;;;;;;116.55;21.25;;;;;;;-0.27;100.00;102152.13;4985648;28;20060;-73
2023/03/02 04:59:17;;;;;;;85.72;16.40;;;;;;;-0.26;100.00;102160.84;4971797;28;20038;-74
2023/03/02 05:01:43;;;;;;;160.88;22.98;;;;;;;-0.33;100.00;102154.13;4957223;28;20153;-71
2023/03/02 05:04:08;;;;;;;73.18;16.65;;;;;;;-0.24;100.00;102166.91;4985887;28;20038;-73
2023/03/02 05:06:34;;;;;;;68.82;16.55;;;;;;;-0.18;100.00;102166.69;4971240;28;20501;-73
2023/03/02 05:08:59;;;;;;;61.30;15.90;;;;;;;-0.13;100.00;102169.13;4974857;28;20089;-73
2023/03/02 05:11:25;;;;;;;86.38;17.88;;;;;;;-0.23;100.00;102168.63;4951717;28;20296;-73
2023/03/02 05:13:53;;;;;;;83.72;16.27;;;;;;;-0.21;100.00;102166.81;4976742;28;20517;-72
2023/03/02 05:16:19;;;;;;;72.25;16.67;;;;;;;-0.13;100.00;102166.50;4984699;28;20042;-72
2023/03/02 05:18:45;;;;;;;65.82;15.35;;;;;;;-0.04;100.00;102168.78;4985610;28;20046;-72
2023/03/02 05:21:11;;;;;;;79.75;17.02;;;;;;;-0.17;100.00;102163.13;4984867;28;20578;-72
2023/03/02 05:23:37;;;;;;;76.35;18.15;;;;;;;-0.18;100.00;102161.44;4985847;28;20145;-70
2023/03/02 05:26:02;;;;;;;93.07;18.95;;;;;;;-0.13;100.00;102164.72;4985623;28;20029;-70
2023/03/02 05:28:27;;;;;;;85.47;17.02;;;;;;;-0.17;100.00;102164.91;4972433;28;20038;-73
2023/03/02 05:30:53;;;;;;;77.93;18.85;;;;;;;-0.13;100.00;102164.72;4966759;28;20030;-71
2023/03/02 05:33:19;;;;;;;73.30;19.70;;;;;;;-0.02;100.00;102173.06;4985513;28;20066;-73
2023/03/02 05:35:46;;;;;;;73.80;21.23;;;;;;;-0.02;100.00;102164.34;4971025;28;20041;-72
2023/03/02 05:38:12;;;;;;;74.47;21.05;;;;;;;-0.04;100.00;102164.38;4985420;28;20454;-71
2023/03/02 05:40:38;;;;;;;111.22;24.20;;;;;;;-0.04;100.00;102163.53;4974294;28;20061;-70
2023/03/02 05:43:04;;;;;;;68.15;18.70;;;;;;;0.02;100.00;102173.78;4988663;28;20447;-73
2023/03/02 05:45:34;;;;;;;53.42;17.58;;;;;;;0.09;100.00;102161.28;4971220;28;20085;-73
2023/03/02 05:47:59;;;;;;;74.07;20.92;;;;;;;0.14;100.00;102162.81;4966869;28;20439;-73
2023/03/02 05:50:25;;;;;;;65.25;18.00;;;;;;;0.13;100.00;102158.47;4967717;28;20036;-73
2023/03/02 05:52:50;;;;;;;64.32;21.15;;;;;;;0.17;100.00;102156.59;4985258;28;20462;-73
2023/03/02 05:55:17;;;;;;;85.70;21.02;;;;;;;0.21;100.00;102147.63;4957701;28;20553;-72
2023/03/02 05:57:42;;;;;;;106.15;23.45;;;;;;;0.09;100.00;102151.63;4956874;28;20078;-72
2023/03/02 06:00:10;;;;;;;97.68;22.30;;;;;;;0.19;100.00;102155.59;4985303;28;20427;-73
2023/03/02 06:02:39;;;;;;;72.95;20.90;;;;;;;0.22;100.00;102148.53;4968638;28;20053;-73
2023/03/02 06:05:08;;;;;;;66.80;19.63;;;;;;;0.29;100.00;102150.84;4984901;28;20038;-73
2023/03/02 06:07:33;;;;;;;69.45;21.27;;;;;;;0.33;100.00;102148.94;4971191;28;20396;-73
2023/03/02 06:09:58;;;;;;;70.70;22.55;;;;;;;0.31;100.00;102142.91;4987417;28;20045;-73
2023/03/02 06:12:24;;;;;;;71.13;22.90;;;;;;;0.32;100.00;102149.84;4987239;28;20046;-73
2023/03/02 06:14:49;;;;;;;59.88;20.58;;;;;;;0.30;100.00;102147.28;4973668;28;20270;-74
2023/03/02 06:17:15;;;;;;;97.05;22.42;;;;;;;0.37;100.00;102153.13;4971020;28;20042;-73
2023/03/02 06:19:40;;;;;;;130.93;24.77;;;;;;;0.31;100.00;102154.25;4976499;28;20049;-73
2023/03/02 06:22:05;;;;;;;64.70;19.80;;;;;;;0.27;100.00;102155.28;4985124;28;20041;-73
2023/03/02 06:24:31;;;;;;;60.67;19.58;;;;;;;0.34;100.00;102154.13;4986839;28;20653;-71
2023/03/02 06:26:56;;;;;;;84.40;22.70;;;;;;;0.28;100.00;102149.13;4973958;28;20434;-72
2023/03/02 06:29:22;;;;;;;110.85;25.48;;;;;;;0.29;100.00;102155.25;4970920;28;20129;-71
2023/03/02 06:31:47;;;;;;;58.72;19.50;;;;;;;0.39;100.00;102143.44;4984766;28;20046;-71
2023/03/02 06:34:13;;;;;;;71.90;21.33;;;;;;;0.45;100.00;102150.22;4985980;28;20042;-72
2023/03/02 06:36:39;;;;;;;60.70;19.17;;;;;;;0.47;100.00;102146.63;4985010;28;20054;-72
2023/03/02 06:39:14;;;;;;;70.25;20.08;;;;;;;0.41;100.00;102144.22;4988138;28;20022;-73
2023/03/02 06:41:44;;;;;;;59.03;19.70;;;;;;;0.46;100.00;102146.66;4982870;28;20549;-73
2023/03/02 06:44:09;;;;;;;117.93;26.08;;;;;;;0.47;100.00;102153.63;4990597;28;20038;-73
2023/03/02 06:46:36;;;;;;;63.63;19.58;;;;;;;0.46;100.00;102147.50;4967688;28;20042;-72
2023/03/02 06:49:01;;;;;;;;;;;;;;;0.43;100.00;102152.06;4988590;28;20418;-73
2023/03/02 06:51:26;;;;;;;72.25;21.98;;;;;;;0.50;100.00;102157.00;4974063;28;19924;-71
2023/03/02 06:53:52;;;;;;;68.07;22.40;;;;;;;0.59;100.00;102161.03;4977938;28;20488;-71
2023/03/02 06:56:17;;;;;;;74.57;23.23;;;;;;;0.63;100.00;102162.56;4977078;28;20453;-71
2023/03/02 06:58:43;;;;;;;59.67;20.07;;;;;;;0.68;100.00;102162.38;4988623;28;20069;-73
2023/03/02 07:01:08;;;;;;;131.73;25.30;;;;;;;0.62;100.00;102159.09;4975789;28;20292;-73
2023/03/02 07:03:34;;;;;;;67.50;20.02;;;;;;;0.63;100.00;102170.47;4990216;28;20038;-73
2023/03/02 07:06:00;;;;;;;87.50;20.65;;;;;;;0.37;100.00;102155.78;4988284;28;20089;-73
2023/03/02 07:08:26;;;;;;;66.10;20.80;;;;;;;0.47;100.00;102153.63;4980637;28;20038;-72
2023/03/02 07:10:51;;;;;;;60.75;19.90;;;;;;;0.55;100.00;102172.56;5002168;23;20132;-87
2023/03/02 07:13:17;;;;;;;62.15;19.13;;;;;;;0.34;100.00;102169.88;5013224;28;20042;-86
2023/03/02 07:15:42;;;;;;;67.90;19.93;;;;;;;0.37;100.00;102166.28;4982320;28;20029;-86
2023/03/02 07:18:07;;;;;;;84.97;22.77;;;;;;;0.37;100.00;102174.16;4997074;28;20033;-85
2023/03/02 07:20:33;;;;;;;83.95;21.38;;;;;;;0.34;100.00;102180.41;4996100;28;20191;-84
2023/03/02 07:22:58;;;;;;;56.05;18.33;;;;;;;0.47;100.00;102172.00;4997104;28;20390;-86
2023/03/02 07:25:24;;;;;;;55.38;20.13;;;;;;;0.55;100.00;102172.56;5012506;28;20524;-85
2023/03/02 07:27:49;;;;;;;52.42;16.30;;;;;;;0.39;100.00;102175.81;4997691;28;20104;-85
2023/03/02 07:30:19;;;;;;;45.72;17.90;;;;;;;0.30;100.00;102162.19;5014102;28;20045;-86
2023/03/02 07:32:45;;;;;;;57.65;19.98;;;;;;;0.50;100.00;102167.50;5010638;28;20124;-89
2023/03/02 07:35:10;;;;;;;63.42;18.48;;;;;;;0.56;100.00;102175.16;5011367;28;20077;-86
2023/03/02 07:37:36;;;;;;;62.78;19.00;;;;;;;0.50;100.00;102166.66;5012905;28;20034;-86
2023/03/02 07:40:02;;;;;;;91.07;21.23;;;;;;;0.55;100.00;102165.53;5014520;28;20054;-87
2023/03/02 07:42:27;;;;;;;;;;;;;;;0.41;100.00;102160.84;5000243;28;20284;-87
2023/03/02 07:44:55;;;;;;;47.88;15.65;;;;;;;0.47;100.00;102151.88;4999873;28;20337;-87
2023/03/02 07:47:21;;;;;;;56.28;16.27;;;;;;;0.47;100.00;102149.25;5024402;28;20045;-88
2023/03/02 07:49:46;;;;;;;33.53;13.93;;;;;;;0.58;100.00;102146.16;5000840;28;20505;-88
2023/03/02 07:52:12;;;;;;;63.40;18.87;;;;;;;0.74;100.00;102143.75;4996573;28;20088;-89
2023/03/02 07:54:37;;;;;;;190.77;23.85;;;;;;;0.69;100.00;102143.94;4998043;28;20490;-88
2023/03/02 07:57:02;;;;;;;57.07;17.90;;;;;;;0.79;100.00;102147.88;5007407;28;20033;-88
2023/03/02 07:59:28;;;;;;;78.65;19.45;;;;;;;0.77;100.00;102143.59;4998042;28;20376;-88
2023/03/02 08:01:54;;;;;;;47.35;16.50;;;;;;;0.96;100.00;102148.94;4996036;28;20048;-88
2023/03/02 08:04:20;;;;;;;78.70;23.25;;;;;;;0.79;100.00;102145.25;5005277;28;20018;-88
2023/03/02 08:06:45;;;;;;;55.33;19.52;;;;;;;0.95;100.00;102150.72;4998173;28;20040;-87
2023/03/02 08:09:10;;;;;;;64.72;18.85;;;;;;;1.04;100.00;102154.72;5014777;28;20069;-87
2023/03/02 08:11:36;;;;;;;52.60;14.80;;;;;;;0.91;100.00;102143.88;5006098;28;20038;-88
2023/03/02 08:14:02;;;;;;;49.07;17.40;;;;;;;0.67;100.00;102143.13;4998477;28;20882;-88
2023/03/02 08:16:28;;;;;;;45.85;15.32;;;;;;;0.74;100.00;102136.69;5001673;28;20061;-89
2023/03/02 08:18:54;;;;;;;42.03;14.48;;;;;;;0.88;100.00;102143.16;5002767;28;20037;-86
2023/03/02 08:21:22;;;;;;;44.65;16.20;;;;;;;0.73;100.00;102132.38;5002817;28;20030;-88
2023/03/02 08:23:48;;;;;;;43.33;13.70;;;;;;;0.90;100.00;102129.03;4996111;28;20038;-87
2023/03/02 08:26:14;;;;;;;51.00;15.30;;;;;;;0.72;100.00;102120.13;4995301;28;20045;-88
2023/03/02 08:28:40;;;;;;;44.53;15.68;;;;;;;0.76;100.00;102115.63;4995513;28;20026;-88
2023/03/02 08:31:07;;;;;;;35.63;15.02;;;;;;;1.05;100.00;102136.25;5011146;28;20049;-87
2023/03/02 08:33:33;;;;;;;35.78;14.43;;;;;;;1.22;100.00;102132.88;4994336;28;20038;-87
2023/03/02 08:36:04;;;;;;;41.30;16.65;;;;;;;1.42;100.00;102142.50;4994210;28;20032;-86
2023/03/02 08:38:31;;;;;;;31.35;12.55;;;;;;;1.36;100.00;102136.66;4994686;28;20524;-87
2023/03/02 08:40:57;;;;;;;33.45;13.13;;;;;;;1.37;100.00;102141.00;4990722;28;20386;-87
2023/03/02 08:43:24;;;;;;;31.75;13.80;;;;;;;1.30;100.00;102134.31;4994770;28;20560;-87
2023/03/02 08:45:56;;;;;;;34.58;11.20;;;;;;;0.76;100.00;102131.38;4993827;28;20038;-87
2023/03/02 08:48:22;;;;;;;28.85;11.25;;;;;;;0.87;100.00;102125.66;4993940;28;20045;-88
2023/03/02 08:50:58;;;;;;;30.45;12.70;;;;;;;1.01;100.00;102128.56;4993688;28;20042;-86
2023/03/02 08:53:25;;;;;;;32.20;12.90;;;;;;;1.26;100.00;102133.56;4989288;28;20041;-87
2023/03/02 08:55:50;;;;;;;29.90;13.07;;;;;;;1.32;100.00;102146.47;5009416;28;20079;-86
2023/03/02 08:58:16;;;;;;;37.30;14.32;;;;;;;1.34;100.00;102141.16;4993623;28;20025;-86
2023/03/02 09:00:41;;;;;;;42.60;14.30;;;;;;;1.43;100.00;102123.16;4993276;28;20450;-87
2023/03/02 09:03:13;;;;;;;37.00;14.07;;;;;;;1.58;100.00;102126.00;5012432;28;20053;-91
2023/03/02 09:05:39;;;;;;;41.80;15.45;;;;;;;1.35;100.00;102124.44;5007044;28;20401;-87
2023/03/02 09:08:05;;;;;;;45.92;15.20;;;;;;;1.44;100.00;102116.13;4998494;28;20026;-86
2023/03/02 09:10:30;;;;;;;45.22;15.40;;;;;;;1.48;100.00;102112.44;4989369;28;20053;-86
2023/03/02 09:12:56;;;;;;;44.83;15.90;;;;;;;1.71;100.00;102118.38;4989821;28;20030;-87
2023/03/02 09:15:21;;;;;;;44.77;15.67;;;;;;;1.57;100.00;102106.75;4993418;28;20430;-87
2023/03/02 09:17:47;;;;;;;33.15;13.35;;;;;;;1.62;100.00;102099.47;4982927;28;20371;-89
2023/03/02 09:20:13;;;;;;;46.17;15.50;;;;;;;1.76;100.00;102103.25;5010162;28;20064;-88
2023/03/02 09:22:38;;;;;;;;;;;;;;;1.75;100.00;102093.63;4977589;28;20034;-87
2023/03/02 09:25:05;;;;;;;33.30;13.18;;;;;;;1.91;100.00;102097.25;4976859;28;19922;-86
2023/03/02 09:27:30;;;;;;;;;;;;;;;1.72;100.00;102083.25;4995322;28;20034;-87
2023/03/02 09:29:56;;;;;;;29.45;12.02;;;;;;;1.69;100.00;102085.09;4983227;28;20011;-86
2023/03/02 09:32:21;;;;;;;32.03;13.30;;;;;;;1.85;100.00;102085.22;5009386;28;20040;-88
2023/03/02 09:34:46;;;;;;;31.27;13.17;;;;;;;1.92;100.00;102077.00;4992415;28;20557;-87
2023/03/02 09:37:12;;;;;;;32.00;13.10;;;;;;;1.86;100.00;102075.53;4993791;28;20288;-88
2023/03/02 09:39:38;;;;;;;36.03;14.40;;;;;;;2.05;100.00;102080.78;4984266;28;20704;-87
2023/03/02 09:42:12;;;;;;;38.95;14.23;;;;;;;2.22;100.00;102079.94;4978009;28;20285;-86
2023/03/02 09:45:02;;;;;;;32.55;14.55;;;;;;;2.23;100.00;102076.41;5007808;28;20034;-87
2023/03/02 09:47:42;;;;;;;35.22;15.00;;;;;;;2.35;100.00;102083.69;4990644;28;20049;-86
2023/03/02 09:50:29;;;;;;;45.78;16.35;;;;;;;2.27;100.00;102072.66;4990975;28;20049;-87
2023/03/02 09:53:14;;;;;;;45.72;18.50;;;;;;;2.33;100.00;102075.00;5008022;28;20046;-87
2023/03/02 09:55:40;;;;;;;37.28;15.18;;;;;;;2.42;100.00;102065.78;5006831;28;20053;-87
2023/03/02 09:58:14;;;;;;;44.03;17.47;;;;;;;2.25;100.00;102066.63;5007887;28;20108;-86
2023/03/02 10:00:42;;;;;;;33.80;14.30;;;;;;;2.50;100.00;102076.78;4988943;28;20274;-86
2023/03/02 10:03:17;;;;;;;29.35;14.40;;;;;;;2.62;100.00;102077.94;4991044;28;20049;-85
2023/03/02 10:05:46;;;;;;;29.27;13.33;;;;;;;2.64;100.00;102076.06;4990101;28;20045;-84
2023/03/02 10:08:16;;;;;;;27.65;12.90;;;;;;;2.62;100.00;102070.91;5009018;28;20445;-81
2023/03/02 10:10:47;;;;;;;29.88;14.50;;;;;;;2.58;100.00;102058.78;4991487;28;20050;-85
2023/03/02 10:13:29;;;;;;;28.08;13.23;;;;;;;2.72;100.00;102069.47;5007542;28;20533;-83
2023/03/02 10:16:07;;;;;;;31.48;13.70;;;;;;;2.84;100.00;102057.44;4987598;28;20034;-84
2023/03/02 10:19:01;;;;;;;30.48;13.25;;;;;;;2.75;100.00;102050.84;4975750;28;20112;-84
2023/03/02 10:21:34;;;;;;;30.10;14.05;;;;;;;2.71;100.00;102044.03;4990494;28;20037;-82
2023/03/02 10:24:21;;;;;;;36.72;16.85;;;;;;;2.69;100.00;102037.13;4975706;28;20025;-85
2023/03/02 10:26:52;;;;;;;29.45;12.52;;;;;;;2.80;100.00;102032.16;4987418;28;20038;-82
2023/03/02 10:29:49;;;;;;;30.23;13.65;;;;;;;2.78;100.00;102025.25;5010745;28;20042;-82
2023/03/02 10:32:23;;;;;;;33.03;13.23;;;;;;;3.04;100.00;102023.88;4991547;28;20038;-86
2023/03/02 10:34:50;;;;;;;24.88;12.55;;;;;;;3.14;100.00;102017.19;4994559;28;20125;-83
2023/03/02 10:37:23;;;;;;;25.50;13.23;;;;;;;3.18;100.00;101997.56;5010571;28;20036;-84
2023/03/02 10:39:50;;;;;;;31.48;13.40;;;;;;;3.35;100.00;101991.38;5012259;28;20462;-85
2023/03/02 10:42:18;;;;;;;23.70;12.05;;;;;;;3.38;100.00;101973.56;4993740;28;20034;-84
2023/03/02 10:44:51;;;;;;;25.13;13.02;;;;;;;3.51;100.00;101967.59;4982254;28;20021;-84
2023/03/02 10:47:25;;;;;;;22.38;12.75;;;;;;;3.60;100.00;101956.50;4994830;28;20026;-82
2023/03/02 10:49:53;;;;;;;22.27;11.85;;;;;;;3.65;100.00;101940.41;4995124;28;20048;-85
2023/03/02 10:52:21;;;;;;;26.42;12.35;;;;;;;3.56;100.00;101928.59;4994335;28;20129;-85
2023/03/02 10:54:47;;;;;;;27.30;12.30;;;;;;;3.61;100.00;101923.91;5005149;28;20868;-84
2023/03/02 10:57:28;;;;;;;21.17;11.57;;;;;;;3.90;100.00;101937.19;4995338;28;20041;-84
2023/03/02 11:00:00;;;;;;;24.90;12.07;;;;;;;3.95;100.00;101900.78;4998487;28;20038;-86
2023/03/02 11:02:28;;;;;;;26.25;12.52;;;;;;;4.07;100.00;101880.69;5011969;28;20041;-82
2023/03/02 11:05:09;;;;;;;23.52;11.82;;;;;;;4.29;100.00;101872.31;5001480;28;20018;-82
2023/03/02 11:07:35;;;;;;;31.17;14.30;;;;;;;4.10;100.00;101822.38;5000569;28;20101;-85
2023/03/02 11:10:16;;;;;;;23.33;11.80;;;;;;;4.17;100.00;101810.47;5017080;28;20065;-84
2023/03/02 11:12:46;;;;;;;22.60;11.60;;;;;;;3.96;100.00;101778.31;5004917;28;20037;-86